Time;durP1;ratioP1;P1;durP2;ratioP2;P2;SDS_P1;SDS_P2;PMS_P1;PMS_P2;Temp;Humidity;BMP_temperature;BMP_pressure;BME280_temperature;BME280_humidity;BME280_pressure;Samples;Min_cycle;Max_cycle;Signal;HPM_P1;HPM_P2
2022/07/24 00:01:24;;;;;;;14.67;13.10;;;19.90;99.90;;;;;;5114553;28;20300;-75
2022/07/24 00:03:52;;;;;;;14.70;12.07;;;19.90;99.90;;;;;;5114481;28;20259;-74
2022/07/24 00:06:23;;;;;;;12.90;11.70;;;19.90;99.90;;;;;;5114049;27;20653;-76
2022/07/24 00:08:51;;;;;;;12.47;11.17;;;19.90;99.90;;;;;;5114132;28;20202;-76
2022/07/24 00:11:21;;;;;;;13.60;12.30;;;19.90;99.90;;;;;;5114629;28;20248;-75
2022/07/24 00:13:49;;;;;;;13.13;11.83;;;19.90;99.90;;;;;;5121384;27;20292;-76
2022/07/24 00:16:17;;;;;;;13.67;12.37;;;19.90;99.90;;;;;;5134272;27;20252;-75
2022/07/24 00:18:46;;;;;;;12.93;11.73;;;19.90;99.90;;;;;;5133996;27;20221;-76
2022/07/24 00:21:14;;;;;;;13.10;11.90;;;19.90;99.90;;;;;;5117952;27;20283;-76
2022/07/24 00:23:46;;;;;;;13.70;12.33;;;19.90;99.90;;;;;;5113924;28;20293;-75
2022/07/24 00:26:15;;;;;;;13.40;12.10;;;19.90;99.90;;;;;;5113701;28;20218;-75
2022/07/24 00:28:43;;;;;;;13.37;12.07;;;19.80;99.90;;;;;;5113822;28;20230;-75
2022/07/24 00:31:11;;;;;;;13.80;12.30;;;19.80;99.90;;;;;;5113803;28;20297;-74
2022/07/24 00:33:42;;;;;;;13.23;11.93;;;19.80;99.90;;;;;;5113825;28;20206;-75
2022/07/24 00:36:10;;;;;;;13.40;11.20;;;19.80;99.90;;;;;;5114088;28;20199;-75
2022/07/24 00:38:41;;;;;;;12.93;11.77;;;19.80;99.90;;;;;;5113832;28;20568;-76
2022/07/24 00:41:11;;;;;;;12.73;11.53;;;19.90;99.90;;;;;;5113293;28;20245;-75
2022/07/24 00:44:01;;;;;;;13.40;11.60;;;19.90;99.90;;;;;;5113166;28;20310;-75
2022/07/24 00:46:29;;;;;;;11.90;10.70;;;19.80;99.90;;;;;;5113413;28;20238;-75
2022/07/24 00:48:58;;;;;;;12.20;10.90;;;19.90;99.90;;;;;;5127107;27;20250;-75
2022/07/24 00:51:26;;;;;;;12.57;11.37;;;19.90;99.90;;;;;;5134723;27;20204;-76
2022/07/24 00:53:55;;;;;;;12.03;10.93;;;19.90;99.90;;;;;;5135612;28;20216;-74
2022/07/24 00:56:25;;;;;;;12.67;11.33;;;19.80;99.90;;;;;;5134007;28;20236;-76
2022/07/24 00:58:54;;;;;;;12.27;10.97;;;19.90;99.90;;;;;;5133730;28;20651;-76
2022/07/24 01:01:25;;;;;;;12.93;11.73;;;19.90;99.90;;;;;;5133167;28;20289;-76
2022/07/24 01:03:54;;;;;;;11.70;10.53;;;19.80;99.90;;;;;;5133966;28;20242;-76
2022/07/24 01:06:23;;;;;;;12.33;11.03;;;19.80;99.90;;;;;;5133736;28;20225;-75
2022/07/24 01:08:52;;;;;;;12.90;11.13;;;19.80;99.90;;;;;;5133002;28;20631;-75
2022/07/24 01:11:21;;;;;;;12.90;11.60;;;19.80;99.90;;;;;;5130758;28;20304;-75
2022/07/24 01:13:51;;;;;;;13.20;11.90;;;19.80;99.90;;;;;;5113285;28;20202;-76
2022/07/24 01:16:19;;;;;;;13.57;12.17;;;19.70;99.90;;;;;;5113004;28;20595;-76
2022/07/24 01:18:48;;;;;;;12.63;11.50;;;19.70;99.90;;;;;;5118069;28;20245;-77
2022/07/24 01:21:19;;;;;;;13.17;11.87;;;19.70;99.90;;;;;;5136186;28;20667;-77
2022/07/24 01:23:48;;;;;;;13.33;12.13;;;19.70;99.90;;;;;;5128482;28;20190;-79
2022/07/24 01:26:17;;;;;;;12.77;11.50;;;19.60;99.90;;;;;;5133980;28;20662;-76
2022/07/24 01:28:45;;;;;;;12.30;11.10;;;19.60;99.90;;;;;;5134488;28;20206;-74
2022/07/24 01:31:13;;;;;;;13.50;12.20;;;19.60;99.90;;;;;;5134410;28;20201;-75
2022/07/24 01:33:42;;;;;;;14.10;12.80;;;19.50;99.90;;;;;;5135424;27;20271;-76
2022/07/24 01:36:10;;;;;;;15.37;13.77;;;19.40;99.90;;;;;;5133462;28;20284;-75
2022/07/24 01:38:40;;;;;;;15.13;13.73;;;19.40;99.90;;;;;;5135526;28;20226;-78
2022/07/24 01:41:08;;;;;;;17.27;15.50;;;19.30;99.90;;;;;;5136582;28;20752;-75
2022/07/24 01:43:37;;;;;;;15.83;14.33;;;19.30;99.90;;;;;;5137604;28;20231;-76
2022/07/24 01:46:06;;;;;;;16.87;15.37;;;19.30;99.90;;;;;;5138686;28;20202;-78
2022/07/24 01:48:34;;;;;;;15.97;14.33;;;19.30;99.90;;;;;;5142195;28;20209;-77
2022/07/24 01:51:02;;;;;;;16.07;14.57;;;19.30;99.90;;;;;;5150506;28;20253;-77
2022/07/24 01:53:31;;;;;;;16.27;14.57;;;19.30;99.90;;;;;;5150253;28;20236;-77
2022/07/24 01:56:01;;;;;;;15.93;14.33;;;19.30;99.90;;;;;;5147212;28;20234;-76
2022/07/24 01:58:29;;;;;;;15.77;14.17;;;19.30;99.90;;;;;;5137711;27;20639;-77
2022/07/24 02:00:59;;;;;;;15.13;13.73;;;19.30;99.90;;;;;;5139533;27;20197;-77
2022/07/24 02:03:28;;;;;;;16.00;14.50;;;19.30;99.90;;;;;;5138402;27;20206;-76
2022/07/24 02:05:56;;;;;;;16.37;14.77;;;19.30;99.90;;;;;;5138870;27;20256;-78
2022/07/24 02:08:25;;;;;;;16.93;15.33;;;19.20;99.90;;;;;;5137387;27;20675;-80
2022/07/24 02:10:54;;;;;;;15.17;13.67;;;19.20;99.90;;;;;;5137152;27;20214;-78
2022/07/24 02:13:25;;;;;;;17.63;15.27;;;19.20;99.90;;;;;;5136736;27;20252;-77
2022/07/24 02:15:54;;;;;;;17.03;15.23;;;19.20;99.90;;;;;;5137013;27;20555;-75
2022/07/24 02:18:22;;;;;;;15.73;14.23;;;19.20;99.90;;;;;;5136969;27;20251;-75
2022/07/24 02:20:51;;;;;;;17.40;15.73;;;19.20;99.90;;;;;;5137042;27;20342;-77
2022/07/24 02:23:19;;;;;;;15.13;13.73;;;19.10;99.90;;;;;;5137095;27;20292;-76
2022/07/24 02:25:51;;;;;;;15.50;13.87;;;19.10;99.90;;;;;;5136233;27;20296;-76
2022/07/24 02:28:20;;;;;;;16.00;14.47;;;19.10;99.90;;;;;;5137081;27;20205;-76
2022/07/24 02:30:51;;;;;;;16.67;15.17;;;19.00;99.90;;;;;;5136343;27;20223;-75
2022/07/24 02:33:19;;;;;;;16.13;14.53;;;19.00;99.90;;;;;;5136883;27;20633;-75
2022/07/24 02:35:47;;;;;;;16.47;14.93;;;18.90;99.90;;;;;;5129783;27;20289;-76
2022/07/24 02:38:15;;;;;;;17.07;15.47;;;18.90;99.90;;;;;;5115719;28;20201;-75
2022/07/24 02:40:44;;;;;;;16.97;15.23;;;18.90;99.90;;;;;;5115286;28;20222;-77
2022/07/24 02:43:12;;;;;;;15.97;14.47;;;18.80;99.90;;;;;;5115208;28;20222;-75
2022/07/24 02:45:46;;;;;;;15.30;13.70;;;18.70;99.90;;;;;;5115747;28;20667;-75
2022/07/24 02:48:21;;;;;;;15.27;13.67;;;18.70;99.90;;;;;;5115650;28;20198;-77
2022/07/24 02:50:49;;;;;;;15.67;14.20;;;18.70;99.90;;;;;;5115620;28;20210;-77
2022/07/24 02:53:18;;;;;;;15.50;14.00;;;18.60;99.90;;;;;;5115826;28;20202;-76
2022/07/24 02:55:46;;;;;;;16.77;15.20;;;18.60;99.90;;;;;;5115612;28;20256;-76
2022/07/24 02:58:14;;;;;;;16.57;15.07;;;18.50;99.90;;;;;;5115578;28;20692;-77
2022/07/24 03:00:42;;;;;;;16.23;14.63;;;18.50;99.90;;;;;;5131733;27;20699;-77
2022/07/24 03:03:11;;;;;;;15.60;14.00;;;18.50;99.90;;;;;;5115435;28;20687;-76
2022/07/24 03:05:42;;;;;;;16.97;15.37;;;18.40;99.90;;;;;;5115517;28;20253;-76
2022/07/24 03:08:11;;;;;;;17.30;15.60;;;18.50;99.90;;;;;;5115206;28;20213;-75
2022/07/24 03:10:39;;;;;;;16.73;15.03;;;18.40;99.90;;;;;;5123460;27;20285;-77
2022/07/24 03:13:08;;;;;;;17.30;15.73;;;18.40;99.90;;;;;;5115901;27;20203;-77
2022/07/24 03:15:36;;;;;;;16.33;14.73;;;18.40;99.90;;;;;;5115348;28;20208;-77
2022/07/24 03:18:05;;;;;;;17.80;16.20;;;18.30;99.90;;;;;;5115367;28;20202;-75
2022/07/24 03:20:51;;;;;;;18.03;16.00;;;18.30;99.90;;;;;;5114734;28;20714;-75
2022/07/24 03:23:19;;;;;;;17.13;15.43;;;18.30;99.90;;;;;;5118805;27;20288;-76
2022/07/24 03:25:47;;;;;;;16.97;15.27;;;18.30;99.90;;;;;;5135884;27;20213;-75
2022/07/24 03:28:16;;;;;;;16.17;14.60;;;18.20;99.90;;;;;;5135418;27;20240;-76
2022/07/24 03:30:45;;;;;;;16.90;15.40;;;18.20;99.90;;;;;;5117793;27;20609;-76
2022/07/24 03:33:13;;;;;;;17.97;16.00;;;18.20;99.90;;;;;;5135306;27;20206;-77
2022/07/24 03:35:42;;;;;;;16.70;15.03;;;18.10;99.90;;;;;;5125448;27;20234;-77
2022/07/24 03:38:11;;;;;;;17.10;15.47;;;18.10;99.90;;;;;;5114687;28;20244;-77
2022/07/24 03:40:41;;;;;;;16.23;14.63;;;18.00;99.90;;;;;;5114566;28;20245;-77
2022/07/24 03:43:10;;;;;;;16.13;14.43;;;18.00;99.90;;;;;;5114230;28;20655;-75
2022/07/24 03:45:38;;;;;;;16.30;14.70;;;18.00;99.90;;;;;;5114835;28;20314;-77
2022/07/24 03:48:07;;;;;;;16.77;15.17;;;17.90;99.90;;;;;;5114901;28;20237;-74
2022/07/24 03:50:35;;;;;;;16.83;15.17;;;17.90;99.90;;;;;;5118563;27;20292;-74
2022/07/24 03:53:04;;;;;;;17.37;15.60;;;17.90;99.90;;;;;;5135028;27;20224;-77
2022/07/24 03:55:35;;;;;;;16.20;14.60;;;17.80;99.90;;;;;;5134620;27;20213;-74
2022/07/24 03:58:03;;;;;;;16.97;15.20;;;17.80;99.90;;;;;;5135060;27;20347;-76
2022/07/24 04:00:32;;;;;;;17.50;15.67;;;17.80;99.90;;;;;;5134388;27;20305;-75
2022/07/24 04:03:04;;;;;;;17.83;16.10;;;17.80;99.90;;;;;;5134352;27;20242;-76
2022/07/24 04:05:32;;;;;;;17.33;15.63;;;17.90;99.90;;;;;;5134239;27;20321;-77
2022/07/24 04:08:00;;;;;;;17.80;16.03;;;17.90;99.90;;;;;;5134613;27;20313;-76
2022/07/24 04:10:30;;;;;;;18.17;16.30;;;17.90;99.90;;;;;;5134232;27;20250;-75
2022/07/24 04:12:59;;;;;;;17.70;15.63;;;17.90;99.90;;;;;;5121297;27;20680;-77
2022/07/24 04:15:28;;;;;;;17.20;15.50;;;17.90;99.90;;;;;;5113902;28;20244;-76
2022/07/24 04:17:56;;;;;;;18.63;16.63;;;17.90;99.90;;;;;;5113451;28;20712;-75
2022/07/24 04:20:24;;;;;;;17.40;15.70;;;17.90;99.90;;;;;;5112452;28;20249;-77
2022/07/24 04:22:52;;;;;;;18.83;16.43;;;18.00;99.90;;;;;;5113750;28;20246;-78
2022/07/24 04:25:24;;;;;;;18.63;16.90;;;18.00;99.90;;;;;;5113450;28;20288;-75
2022/07/24 04:27:53;;;;;;;18.33;16.70;;;18.00;99.90;;;;;;5125544;27;20222;-76
2022/07/24 04:30:23;;;;;;;19.53;17.50;;;18.00;99.90;;;;;;5126606;27;20197;-77
2022/07/24 04:32:51;;;;;;;19.77;17.87;;;18.00;99.90;;;;;;5134077;27;20233;-75
2022/07/24 04:35:20;;;;;;;20.13;18.00;;;18.00;99.90;;;;;;5131150;27;20284;-76
2022/07/24 04:37:48;;;;;;;22.70;20.50;;;18.00;99.90;;;;;;5113344;28;20248;-75
2022/07/24 04:40:17;;;;;;;22.57;20.43;;;18.10;99.90;;;;;;5112709;28;20226;-76
2022/07/24 04:42:46;;;;;;;23.37;21.17;;;18.10;99.90;;;;;;5112958;28;20590;-76
2022/07/24 04:45:14;;;;;;;23.83;20.67;;;18.20;99.90;;;;;;5113124;28;20297;-76
2022/07/24 04:47:44;;;;;;;22.63;20.50;;;18.20;99.90;;;;;;5113740;28;20202;-76
2022/07/24 04:50:12;;;;;;;22.47;20.27;;;18.30;99.90;;;;;;5112920;28;20383;-76
2022/07/24 04:52:42;;;;;;;25.10;22.73;;;18.40;99.90;;;;;;5112931;28;20259;-76
2022/07/24 04:55:12;;;;;;;24.63;22.33;;;18.50;99.90;;;;;;5112864;28;20294;-76
2022/07/24 04:57:41;;;;;;;24.57;22.27;;;18.60;99.90;;;;;;5105228;28;20202;-76
2022/07/24 05:00:14;;;;;;;23.40;21.17;;;18.70;99.90;;;;;;5113158;28;20284;-76
2022/07/24 05:02:44;;;;;;;24.10;21.77;;;18.80;99.90;;;;;;5112880;28;20278;-77
2022/07/24 05:05:12;;;;;;;21.83;19.73;;;18.90;99.90;;;;;;5113024;28;20313;-77
2022/07/24 05:07:40;;;;;;;19.73;17.93;;;19.00;99.90;;;;;;5118101;28;20205;-77
2022/07/24 05:10:09;;;;;;;22.83;20.53;;;19.00;99.90;;;;;;5121890;28;20614;-77
2022/07/24 05:12:37;;;;;;;21.63;19.53;;;19.10;99.90;;;;;;5113164;28;20234;-79
2022/07/24 05:15:09;;;;;;;21.83;19.73;;;19.10;99.90;;;;;;5112636;28;20221;-76
2022/07/24 05:17:38;;;;;;;20.90;18.90;;;19.30;99.90;;;;;;5112702;28;20202;-77
2022/07/24 05:20:09;;;;;;;20.10;18.30;;;19.30;99.90;;;;;;5112736;28;20209;-77
2022/07/24 05:22:38;;;;;;;20.93;18.87;;;19.40;99.90;;;;;;5113091;28;20232;-79
2022/07/24 05:25:07;;;;;;;20.07;18.17;;;19.40;99.90;;;;;;5124871;28;20210;-76
2022/07/24 05:27:35;;;;;;;20.67;18.67;;;19.50;99.90;;;;;;5133170;28;20258;-75
2022/07/24 05:30:05;;;;;;;19.47;17.67;;;19.60;99.90;;;;;;5132765;28;20209;-76
2022/07/24 05:32:33;;;;;;;18.63;17.00;;;19.70;99.90;;;;;;5133694;27;20197;-78
2022/07/24 05:35:02;;;;;;;19.30;17.23;;;19.80;99.90;;;;;;5136595;27;20233;-78
2022/07/24 05:37:31;;;;;;;17.37;15.80;;;19.80;99.90;;;;;;5118381;27;20206;-77
2022/07/24 05:39:59;;;;;;;18.67;16.87;;;19.90;99.90;;;;;;5115921;28;20301;-78
2022/07/24 05:42:33;;;;;;;17.80;16.10;;;20.10;99.90;;;;;;5116050;28;20226;-77
2022/07/24 05:45:01;;;;;;;17.67;15.83;;;20.20;99.90;;;;;;5116415;28;20251;-76
2022/07/24 05:47:29;;;;;;;17.77;16.10;;;20.30;99.90;;;;;;5115725;28;20270;-77
2022/07/24 05:49:57;;;;;;;17.83;16.13;;;20.40;99.90;;;;;;5116704;28;20202;-76
2022/07/24 05:52:25;;;;;;;16.67;15.17;;;20.60;99.90;;;;;;5117003;28;20769;-78
2022/07/24 05:54:55;;;;;;;17.63;15.87;;;20.90;99.90;;;;;;5117116;28;20221;-77
2022/07/24 05:57:24;;;;;;;17.23;15.50;;;21.20;99.90;;;;;;5117028;28;20237;-77
2022/07/24 05:59:52;;;;;;;16.60;14.27;;;21.70;99.90;;;;;;5115785;28;20259;-76
2022/07/24 06:02:22;;;;;;;15.83;14.17;;;22.30;99.90;;;;;;5116099;28;20257;-76
2022/07/24 06:04:50;;;;;;;14.10;12.87;;;23.10;99.90;;;;;;5116795;28;20258;-76
2022/07/24 06:07:21;;;;;;;14.97;13.33;;;23.80;99.90;;;;;;5116753;28;20210;-77
2022/07/24 06:09:51;;;;;;;15.43;12.97;;;24.90;99.90;;;;;;5117997;28;20636;-77
2022/07/24 06:12:22;;;;;;;14.97;13.50;;;25.10;99.90;;;;;;5117353;28;20213;-76
2022/07/24 06:14:50;;;;;;;14.13;12.80;;;24.80;99.90;;;;;;5115768;28;20206;-76
2022/07/24 06:17:18;;;;;;;14.07;12.43;;;24.40;99.90;;;;;;5115832;28;20575;-77
2022/07/24 06:19:47;;;;;;;13.27;11.93;;;24.30;99.90;;;;;;5115383;28;20209;-76
2022/07/24 06:22:15;;;;;;;15.67;13.30;;;24.00;99.90;;;;;;5115439;28;20308;-76
2022/07/24 06:24:45;;;;;;;15.17;13.67;;;23.70;99.90;;;;;;5115520;28;20237;-77
2022/07/24 06:27:23;;;;;;;14.73;13.27;;;23.30;99.90;;;;;;5115434;28;20226;-77
2022/07/24 06:29:52;;;;;;;14.50;12.83;;;23.20;99.90;;;;;;5115038;28;20240;-78
2022/07/24 06:32:20;;;;;;;14.10;12.80;;;23.20;99.90;;;;;;5115699;28;20202;-77
2022/07/24 06:34:48;;;;;;;13.73;12.30;;;23.20;99.90;;;;;;5115664;28;20289;-78
2022/07/24 06:37:17;;;;;;;15.53;13.93;;;23.30;99.90;;;;;;5115561;28;20292;-77
2022/07/24 06:39:47;;;;;;;14.23;12.90;;;23.30;99.90;;;;;;5115633;28;20186;-77
2022/07/24 06:42:16;;;;;;;15.80;14.27;;;23.40;99.90;;;;;;5115416;28;20237;-77
2022/07/24 06:44:45;;;;;;;15.50;14.00;;;23.40;99.90;;;;;;5115645;28;20637;-79
2022/07/24 06:47:13;;;;;;;13.20;11.97;;;23.70;99.90;;;;;;5115512;28;20238;-76
2022/07/24 06:49:41;;;;;;;13.67;12.27;;;24.60;99.90;;;;;;5114751;28;20251;-79
2022/07/24 06:52:10;;;;;;;14.80;12.77;;;26.00;99.90;;;;;;5114716;28;20739;-80
2022/07/24 06:54:38;;;;;;;12.73;11.37;;;27.10;99.90;;;;;;5114532;28;20234;-78
2022/07/24 06:57:06;;;;;;;14.52;11.13;;;28.20;99.90;;;;;;5114665;28;20252;-80
2022/07/24 06:59:37;;;;;;;11.80;10.60;;;29.10;99.90;;;;;;5114901;28;20285;-79
2022/07/24 07:02:06;;;;;;;12.95;11.73;;;29.30;99.90;;;;;;5115334;28;20258;-79
2022/07/24 07:04:35;;;;;;;11.90;10.73;;;29.20;99.90;;;;;;5128933;27;20232;-81
2022/07/24 07:07:05;;;;;;;12.07;10.77;;;29.10;99.90;;;;;;5136153;27;20604;-80
2022/07/24 07:09:35;;;;;;;13.43;10.60;;;29.50;99.90;;;;;;5135781;27;20214;-81
2022/07/24 07:12:03;;;;;;;11.85;10.75;;;30.20;99.90;;;;;;5118056;27;20198;-80
2022/07/24 07:14:31;;;;;;;12.35;11.25;;;30.80;99.90;;;;;;5115017;28;20202;-80
2022/07/24 07:17:00;;;;;;;12.95;11.65;;;29.90;99.90;;;;;;5114353;28;20688;-80
2022/07/24 07:19:31;;;;;;;12.77;10.77;;;29.40;99.90;;;;;;5113809;28;20206;-80
2022/07/24 07:21:59;;;;;;;11.90;10.75;;;29.10;99.90;;;;;;5114611;28;20226;-83
2022/07/24 07:24:27;;;;;;;11.32;10.23;;;29.70;99.90;;;;;;5115786;28;20242;-82
2022/07/24 07:26:55;;;;;;;11.75;9.77;;;29.90;99.90;;;;;;5117968;28;20222;-81
2022/07/24 07:29:24;;;;;;;10.10;9.20;;;30.20;99.90;;;;;;5117670;28;20206;-81
2022/07/24 07:31:57;;;;;;;10.73;9.63;;;30.60;99.90;;;;;;5118637;28;20195;-80
2022/07/24 07:34:26;;;;;;;11.43;8.75;;;31.00;99.90;;;;;;5117984;27;20203;-83
2022/07/24 07:36:56;;;;;;;10.13;8.90;;;31.60;99.90;;;;;;5119064;28;20252;-81
2022/07/24 07:39:24;;;;;;;9.43;7.60;;;31.70;99.60;;;;;;5117557;28;20265;-82
2022/07/24 07:41:52;;;;;;;9.85;7.93;;;31.00;99.50;;;;;;5113389;28;20261;-81
2022/07/24 07:44:20;;;;;;;10.85;8.27;;;32.10;97.70;;;;;;5113625;28;20293;-80
2022/07/24 07:46:48;;;;;;;10.52;7.50;;;32.70;96.40;;;;;;5120082;27;20284;-81
2022/07/24 07:49:17;;;;;;;9.88;7.63;;;33.00;96.50;;;;;;5135926;27;20217;-82
2022/07/24 07:51:47;;;;;;;8.80;7.90;;;33.50;95.30;;;;;;5137218;27;20213;-81
2022/07/24 07:54:17;;;;;;;8.55;7.72;;;33.90;93.10;;;;;;5137724;27;20587;-82
2022/07/24 07:56:46;;;;;;;9.27;7.88;;;34.00;93.00;;;;;;5136375;27;20292;-80
2022/07/24 07:59:15;;;;;;;9.18;7.60;;;34.30;92.20;;;;;;5123868;27;20213;-82
2022/07/24 08:01:43;;;;;;;7.75;6.95;;;34.40;91.70;;;;;;5114357;28;20290;-83
2022/07/24 08:04:13;;;;;;;9.15;7.63;;;34.80;89.60;;;;;;5113326;28;20244;-82
2022/07/24 08:06:41;;;;;;;9.20;6.95;;;34.70;89.00;;;;;;5113236;28;20246;-81
2022/07/24 08:09:09;;;;;;;7.60;6.78;;;35.00;88.60;;;;;;5112946;28;20284;-80
2022/07/24 08:11:39;;;;;;;9.13;6.60;;;34.70;83.70;;;;;;5126313;27;20258;-82
2022/07/24 08:14:07;;;;;;;9.35;6.78;;;34.50;83.70;;;;;;5133719;27;20292;-82
2022/07/24 08:16:35;;;;;;;8.57;7.68;;;34.70;82.70;;;;;;5133293;27;20247;-81
2022/07/24 08:19:03;;;;;;;7.25;6.55;;;34.90;80.00;;;;;;5132803;27;20281;-82
2022/07/24 08:21:34;;;;;;;7.55;6.63;;;35.00;82.10;;;;;;5133434;27;20240;-81
2022/07/24 08:24:02;;;;;;;7.68;6.32;;;35.50;81.00;;;;;;5132003;27;20293;-79
2022/07/24 08:26:31;;;;;;;6.93;6.18;;;35.60;80.70;;;;;;5119192;27;20747;-82
2022/07/24 08:29:01;;;;;;;8.00;5.97;;;35.50;78.80;;;;;;5112365;28;20294;-82
2022/07/24 08:31:29;;;;;;;7.68;6.00;;;35.10;78.40;;;;;;5112562;28;20213;-82
2022/07/24 08:33:58;;;;;;;7.30;5.57;;;35.30;74.90;;;;;;5112243;28;20679;-82
2022/07/24 08:36:26;;;;;;;7.07;5.90;;;35.90;75.50;;;;;;5127307;27;20289;-80
2022/07/24 08:38:54;;;;;;;5.85;5.10;;;35.60;76.40;;;;;;5112214;28;20313;-81
2022/07/24 08:41:23;;;;;;;7.93;5.40;;;36.20;75.00;;;;;;5112098;28;20655;-79
2022/07/24 08:43:54;;;;;;;7.43;6.20;;;36.60;73.50;;;;;;5112535;28;20210;-81
2022/07/24 08:46:28;;;;;;;7.35;5.70;;;35.20;75.90;;;;;;5116789;28;20227;-81
2022/07/24 08:49:07;;;;;;;8.02;6.15;;;35.70;75.00;;;;;;5116505;27;20660;-82
2022/07/24 08:51:39;;;;;;;7.50;6.32;;;35.90;71.90;;;;;;5112115;28;20575;-80
2022/07/24 08:54:07;;;;;;;7.90;5.93;;;34.50;76.20;;;;;;5111924;28;20187;-81
2022/07/24 08:56:38;;;;;;;7.07;6.30;;;34.90;77.90;;;;;;5113702;28;20293;-82
2022/07/24 08:59:17;;;;;;;6.07;5.47;;;35.10;74.30;;;;;;5114808;28;20214;-81
2022/07/24 09:01:54;;;;;;;6.05;5.45;;;35.90;70.70;;;;;;5125328;28;20205;-81
2022/07/24 09:04:33;;;;;;;5.45;4.95;;;36.00;72.80;;;;;;5124019;27;20661;-82
2022/07/24 09:07:07;;;;;;;6.20;5.47;;;36.60;66.10;;;;;;5113607;28;20627;-83
2022/07/24 09:09:36;;;;;;;6.35;5.35;;;36.80;70.30;;;;;;5133267;27;20304;-79
2022/07/24 09:12:06;;;;;;;7.90;6.18;;;37.50;64.20;;;;;;5117962;28;20278;-83
2022/07/24 09:14:35;;;;;;;6.78;5.65;;;36.90;66.10;;;;;;5118982;28;20208;-83
2022/07/24 09:17:08;;;;;;;6.10;5.20;;;37.10;67.20;;;;;;5117938;28;20230;-81
2022/07/24 09:19:47;;;;;;;6.18;4.97;;;36.80;68.40;;;;;;5118976;28;20198;-79
2022/07/24 09:22:35;;;;;;;5.93;5.15;;;36.30;66.40;;;;;;5121388;28;20182;-82
2022/07/24 09:25:09;;;;;;;10.25;5.60;;;36.00;67.10;;;;;;5120428;28;20190;-81
2022/07/24 09:27:40;;;;;;;6.53;5.22;;;36.70;65.90;;;;;;5124152;28;20256;-80
2022/07/24 09:30:10;;;;;;;6.10;5.50;;;37.10;61.90;;;;;;5122912;27;20621;-82
2022/07/24 09:32:51;;;;;;;8.88;5.57;;;37.00;60.70;;;;;;5122647;28;20198;-81
2022/07/24 09:35:23;;;;;;;5.60;5.10;;;37.30;61.70;;;;;;5121818;28;20190;-81
2022/07/24 09:37:56;;;;;;;7.00;5.28;;;37.60;58.10;;;;;;5121807;28;20236;-83
2022/07/24 09:40:29;;;;;;;7.00;5.40;;;37.00;60.30;;;;;;5121813;28;20238;-82
2022/07/24 09:43:13;;;;;;;5.57;5.07;;;37.20;64.00;;;;;;5123661;28;20271;-82
2022/07/24 09:46:02;;;;;;;5.95;5.35;;;37.00;63.50;;;;;;5119584;28;20201;-83
2022/07/24 09:48:34;;;;;;;5.95;5.35;;;37.10;63.00;;;;;;5117365;28;20241;-83
2022/07/24 09:51:04;;;;;;;6.47;5.20;;;36.80;61.80;;;;;;5118195;27;20255;-81
2022/07/24 09:53:37;;;;;;;8.45;5.30;;;37.60;65.20;;;;;;5117621;28;20200;-80
2022/07/24 09:56:11;;;;;;;6.13;5.20;;;37.60;59.50;;;;;;5116639;28;20244;-83
2022/07/24 09:58:48;;;;;;;10.23;5.53;;;37.40;59.20;;;;;;5116802;28;20275;-83
2022/07/24 10:01:18;;;;;;;6.45;5.30;;;37.00;58.70;;;;;;5122951;27;20222;-82
2022/07/24 10:03:55;;;;;;;6.35;5.53;;;37.20;60.10;;;;;;5116210;28;20654;-82
2022/07/24 10:06:26;;;;;;;9.73;5.97;;;36.90;61.50;;;;;;5117387;27;20224;-82
2022/07/24 10:08:57;;;;;;;8.73;5.68;;;36.20;62.60;;;;;;5135953;27;20209;-82
2022/07/24 10:11:25;;;;;;;7.72;5.60;;;36.60;63.10;;;;;;5136109;27;20217;-82
2022/07/24 10:13:54;;;;;;;6.90;5.50;;;35.50;62.50;;;;;;5136056;27;20226;-81
2022/07/24 10:16:30;;;;;;;7.65;6.30;;;34.60;65.00;;;;;;5136512;27;20617;-82
2022/07/24 10:19:03;;;;;;;8.48;5.97;;;33.30;66.50;;;;;;5135257;27;20205;-80
2022/07/24 10:21:33;;;;;;;8.57;5.82;;;33.40;67.40;;;;;;5136618;27;20620;-81
2022/07/24 10:25:00;;;;;;;7.22;5.35;;;33.60;67.60;;;;;;5135088;27;20217;-81
2022/07/24 10:27:33;;;;;;;6.88;5.60;;;34.70;67.30;;;;;;5051828;28;20188;-82
2022/07/24 10:30:07;;;;;;;6.18;5.57;;;35.10;67.20;;;;;;5115074;28;20664;-81
2022/07/24 10:32:36;;;;;;;7.93;5.65;;;35.50;65.60;;;;;;5115453;28;20220;-82
2022/07/24 10:35:17;;;;;;;7.45;5.97;;;35.40;65.70;;;;;;5115670;27;20226;-79
2022/07/24 10:37:59;;;;;;;7.38;6.10;;;34.70;66.30;;;;;;5115456;28;20519;-79
2022/07/24 10:40:34;;;;;;;6.22;5.63;;;34.20;68.50;;;;;;5114792;28;20310;-81
2022/07/24 10:43:14;;;;;;;7.32;5.68;;;34.30;69.80;;;;;;5114933;28;20296;-82
2022/07/24 10:45:44;;;;;;;7.15;5.88;;;34.80;67.80;;;;;;5115310;28;20259;-80
2022/07/24 10:48:30;;;;;;;6.63;5.82;;;34.00;68.10;;;;;;5115331;27;20186;-79
2022/07/24 10:51:09;;;;;;;7.60;5.70;;;32.80;70.80;;;;;;5114704;28;20208;-79
2022/07/24 10:53:52;;;;;;;6.30;5.70;;;31.70;74.80;;;;;;5115683;28;20229;-79
2022/07/24 10:56:24;;;;;;;6.97;6.28;;;31.70;75.90;;;;;;5114978;28;20266;-81
2022/07/24 10:59:00;;;;;;;7.40;5.93;;;32.60;70.20;;;;;;5126559;27;20659;-81
2022/07/24 11:01:35;;;;;;;7.88;6.07;;;33.40;67.70;;;;;;5135521;27;20243;-80
2022/07/24 11:04:29;;;;;;;6.95;6.13;;;34.10;66.70;;;;;;5135258;27;20678;-80
2022/07/24 11:07:09;;;;;;;6.28;5.65;;;34.30;66.30;;;;;;5134794;27;20627;-81
2022/07/24 11:09:55;;;;;;;7.20;5.70;;;35.30;63.80;;;;;;5134881;27;20225;-80
2022/07/24 11:12:28;;;;;;;6.32;5.55;;;35.80;65.50;;;;;;5125841;27;20202;-82
2022/07/24 11:15:53;;;;;;;7.78;5.57;;;36.10;62.20;;;;;;5114887;27;20206;-82
2022/07/24 11:17:50;;;;;;;5.70;5.20;;;36.40;61.80;;;;;;5114170;28;20284;-81
2022/07/24 11:20:27;;;;;;;6.25;4.93;;;36.20;64.60;;;;;;5114004;28;20218;-82
2022/07/24 11:22:57;;;;;;;9.68;5.55;;;35.90;63.60;;;;;;5114015;28;20278;-81
2022/07/24 11:25:27;;;;;;;5.93;5.32;;;36.10;63.80;;;;;;5113756;28;20308;-83
2022/07/24 11:27:58;;;;;;;6.05;5.45;;;36.30;65.10;;;;;;5113958;28;20301;-82
2022/07/24 11:30:28;;;;;;;7.90;5.90;;;35.90;67.10;;;;;;5113711;28;20226;-81
2022/07/24 11:32:58;;;;;;;7.85;6.03;;;35.60;66.20;;;;;;5113899;28;20230;-83
2022/07/24 11:35:31;;;;;;;6.82;5.60;;;34.70;66.10;;;;;;5113973;27;20297;-80
2022/07/24 11:38:03;;;;;;;6.45;5.38;;;34.90;66.30;;;;;;5132050;27;20257;-81
2022/07/24 11:40:32;;;;;;;7.03;5.50;;;34.90;68.10;;;;;;5134261;27;20276;-81
2022/07/24 11:43:04;;;;;;;8.35;5.97;;;34.80;66.20;;;;;;5133685;27;20260;-81
2022/07/24 11:45:40;;;;;;;8.45;5.70;;;34.30;67.60;;;;;;5134165;27;20566;-81
2022/07/24 11:48:19;;;;;;;6.93;5.70;;;34.70;68.40;;;;;;5134190;27;20274;-81
2022/07/24 11:51:05;;;;;;;6.93;5.65;;;34.50;69.60;;;;;;5134527;27;20193;-81
2022/07/24 11:53:54;;;;;;;7.72;5.82;;;34.10;68.50;;;;;;5133958;27;20309;-78
2022/07/24 11:56:22;;;;;;;7.65;6.10;;;33.30;69.40;;;;;;5133996;27;20629;-80
2022/07/24 11:58:51;;;;;;;8.40;6.50;;;33.20;69.80;;;;;;5133787;27;20205;-79
2022/07/24 12:01:23;;;;;;;7.68;5.90;;;33.30;68.90;;;;;;5114496;27;20740;-80
2022/07/24 12:03:53;;;;;;;6.85;6.10;;;33.00;66.50;;;;;;5113293;28;20246;-78
2022/07/24 12:06:26;;;;;;;7.35;5.80;;;33.10;67.20;;;;;;5113381;28;20250;-79
2022/07/24 12:09:06;;;;;;;6.68;6.00;;;33.10;70.90;;;;;;5119211;27;20220;-79
2022/07/24 12:11:35;;;;;;;7.82;5.90;;;33.10;72.70;;;;;;5129784;27;20193;-79
2022/07/24 12:14:06;;;;;;;6.40;5.80;;;33.10;66.90;;;;;;5114475;28;20210;-80
2022/07/24 12:16:35;;;;;;;8.75;6.00;;;32.80;67.60;;;;;;5116231;28;20218;-79
2022/07/24 12:19:15;;;;;;;7.95;6.03;;;32.80;67.70;;;;;;5115125;28;20554;-81
2022/07/24 12:21:44;;;;;;;8.88;6.10;;;32.40;68.80;;;;;;5113814;28;20582;-78
2022/07/24 12:24:16;;;;;;;8.73;6.30;;;32.70;68.50;;;;;;5113327;28;20210;-77
2022/07/24 12:26:52;;;;;;;6.32;5.72;;;32.70;69.60;;;;;;5116330;27;20214;-78
2022/07/24 12:29:21;;;;;;;7.18;6.03;;;32.90;65.30;;;;;;5114286;28;20334;-79
2022/07/24 12:31:49;;;;;;;8.10;6.40;;;32.80;65.60;;;;;;5114096;28;20305;-80
2022/07/24 12:34:40;;;;;;;7.10;6.40;;;33.10;69.80;;;;;;5112900;28;20731;-80
2022/07/24 12:37:28;;;;;;;8.20;5.95;;;33.20;71.40;;;;;;5113163;28;20201;-78
2022/07/24 12:39:59;;;;;;;7.25;6.25;;;33.40;69.30;;;;;;5111656;28;20202;-78
2022/07/24 12:42:34;;;;;;;8.13;6.38;;;33.40;66.60;;;;;;5119133;28;20225;-79
2022/07/24 12:45:11;;;;;;;6.70;5.90;;;33.20;67.50;;;;;;5112911;28;20557;-78
2022/07/24 12:48:16;;;;;;;6.85;6.00;;;32.50;64.30;;;;;;5113158;28;20286;-78
2022/07/24 12:51:00;;;;;;;7.10;6.40;;;31.60;66.10;;;;;;5113252;28;20190;-78
2022/07/24 12:53:30;;;;;;;6.45;5.78;;;31.80;69.80;;;;;;5112648;28;20693;-77
2022/07/24 12:56:09;;;;;;;9.57;6.10;;;32.00;72.30;;;;;;5112837;28;20205;-78